Time;durP1;ratioP1;P1;durP2;ratioP2;P2;SDS_P1;SDS_P2;PMS_P1;PMS_P2;Temp;Humidity;BMP_temperature;BMP_pressure;BME280_temperature;BME280_humidity;BME280_pressure;Samples;Min_cycle;Max_cycle;Signal;HPM_P1;HPM_P2
2024/03/08 00:00:09;;;;;;;17.48;10.00;;;4.70;99.90;;;;;;5040331;28;20036;-68
2024/03/08 00:02:45;;;;;;;16.38;10.68;;;4.70;99.90;;;;;;5040358;28;20040;-69
2024/03/08 00:05:12;;;;;;;17.02;10.70;;;4.70;99.90;;;;;;5040425;28;20049;-71
2024/03/08 00:07:39;;;;;;;25.30;11.05;;;4.70;99.90;;;;;;5040147;28;20041;-70
2024/03/08 00:10:06;;;;;;;17.48;11.65;;;4.70;99.90;;;;;;5040159;28;20350;-71
2024/03/08 00:12:31;;;;;;;24.23;13.35;;;4.90;99.90;;;;;;5040501;28;20048;-69
2024/03/08 00:14:58;;;;;;;20.92;13.48;;;4.70;99.90;;;;;;5040804;28;20040;-69
2024/03/08 00:17:25;;;;;;;21.85;12.55;;;4.70;99.90;;;;;;5041734;28;20033;-69
2024/03/08 00:19:50;;;;;;;21.40;12.48;;;5.10;99.90;;;;;;5041628;28;20025;-73
2024/03/08 00:22:17;;;;;;;20.13;11.95;;;4.90;99.90;;;;;;5041710;28;20029;-71
2024/03/08 00:24:43;;;;;;;20.10;12.10;;;4.70;99.90;;;;;;5041780;28;20029;-72
2024/03/08 00:27:09;;;;;;;25.10;12.88;;;4.50;99.90;;;;;;5041425;28;20314;-70
2024/03/08 00:29:35;;;;;;;18.75;11.75;;;;;;;;;;5040331;28;20313;-70
2024/03/08 00:32:01;;;;;;;22.77;13.13;;;;;;;;;;5025939;28;20371;-69
2024/03/08 00:34:27;;;;;;;23.13;13.48;;;4.70;99.90;;;;;;5020723;28;20065;-69
2024/03/08 00:36:53;;;;;;;21.67;11.80;;;4.70;99.90;;;;;;5021188;28;20113;-69
2024/03/08 00:39:22;;;;;;;23.38;13.38;;;4.80;99.90;;;;;;5021514;28;20262;-70
2024/03/08 00:41:47;;;;;;;24.27;13.43;;;4.80;99.90;;;;;;5035555;28;20034;-70
2024/03/08 00:44:13;;;;;;;31.17;14.90;;;4.80;99.90;;;;;;5041007;28;20043;-70
2024/03/08 00:46:39;;;;;;;24.08;13.30;;;4.90;99.90;;;;;;5040239;28;20045;-71
2024/03/08 00:49:04;;;;;;;23.92;13.18;;;4.70;99.90;;;;;;5040369;28;20097;-71
2024/03/08 00:51:30;;;;;;;27.42;15.35;;;4.70;99.90;;;;;;5039445;28;20037;-74
2024/03/08 00:53:56;;;;;;;25.30;13.82;;;4.80;99.90;;;;;;5041787;28;20044;-70
2024/03/08 00:56:21;;;;;;;26.58;15.00;;;4.70;99.90;;;;;;5043409;28;20060;-72
2024/03/08 00:58:47;;;;;;;23.70;15.07;;;4.70;99.90;;;;;;5043521;28;20045;-68
2024/03/08 01:01:15;;;;;;;30.02;16.33;;;4.70;99.90;;;;;;5047708;28;20032;-71
2024/03/08 01:03:43;;;;;;;25.00;11.73;;;4.60;99.90;;;;;;5050053;28;20052;-68
2024/03/08 01:06:09;;;;;;;24.42;13.57;;;4.80;99.90;;;;;;5043021;28;20322;-69
2024/03/08 01:08:34;;;;;;;27.15;15.70;;;4.90;99.90;;;;;;5043129;28;20040;-67
2024/03/08 01:11:00;;;;;;;29.00;16.00;;;4.90;99.90;;;;;;5042944;28;20033;-67
2024/03/08 01:13:26;;;;;;;30.95;15.98;;;4.80;99.90;;;;;;5041427;28;20027;-69
2024/03/08 01:15:51;;;;;;;26.92;14.50;;;4.80;99.90;;;;;;5043103;28;20071;-68
2024/03/08 01:18:17;;;;;;;28.58;15.90;;;4.90;99.90;;;;;;5042995;28;20333;-68
2024/03/08 01:20:42;;;;;;;28.38;16.13;;;4.70;99.90;;;;;;5042976;28;20120;-66
2024/03/08 01:23:08;;;;;;;29.38;16.83;;;4.80;99.90;;;;;;5042660;28;20021;-67
2024/03/08 01:25:35;;;;;;;28.30;15.82;;;;;;;;;;5042966;28;20048;-66
2024/03/08 01:28:00;;;;;;;27.48;15.18;;;4.90;99.90;;;;;;5042908;28;20289;-67
2024/03/08 01:30:26;;;;;;;34.15;16.55;;;4.90;99.90;;;;;;5040157;28;20033;-67
2024/03/08 01:32:51;;;;;;;31.73;16.85;;;4.80;99.90;;;;;;5037407;28;20029;-66
2024/03/08 01:35:18;;;;;;;28.30;16.23;;;4.90;99.90;;;;;;5042739;28;20085;-68
2024/03/08 01:37:43;;;;;;;29.05;16.42;;;4.80;99.90;;;;;;5042609;28;20100;-67
2024/03/08 01:40:09;;;;;;;31.48;16.05;;;4.80;99.90;;;;;;5042679;28;20024;-69
2024/03/08 01:42:37;;;;;;;29.83;16.42;;;5.00;99.90;;;;;;5042421;28;20048;-69
2024/03/08 01:45:07;;;;;;;31.13;15.77;;;4.80;99.90;;;;;;5042393;28;20045;-69
2024/03/08 01:47:33;;;;;;;28.77;16.42;;;5.00;99.90;;;;;;5042081;28;20147;-68
2024/03/08 01:50:09;;;;;;;26.42;15.13;;;4.90;99.90;;;;;;5041883;28;20026;-68
2024/03/08 01:52:36;;;;;;;33.08;17.02;;;5.00;99.90;;;;;;5042151;28;20056;-68
2024/03/08 01:55:09;;;;;;;33.08;18.25;;;5.00;99.90;;;;;;5042145;28;20059;-67
2024/03/08 01:57:35;;;;;;;29.08;16.92;;;5.00;99.90;;;;;;5041746;28;20033;-68
2024/03/08 02:00:05;;;;;;;35.88;16.73;;;5.10;99.90;;;;;;5042176;28;20030;-69
2024/03/08 02:02:34;;;;;;;31.38;15.88;;;4.70;99.90;;;;;;5041879;28;20029;-68
2024/03/08 02:05:01;;;;;;;31.10;17.55;;;5.00;99.90;;;;;;5041776;28;20033;-67
2024/03/08 02:07:27;;;;;;;34.88;17.95;;;5.10;99.90;;;;;;5041618;28;20104;-67
2024/03/08 02:09:52;;;;;;;38.10;17.92;;;5.00;99.90;;;;;;5041775;28;20021;-68
2024/03/08 02:12:20;;;;;;;30.83;17.38;;;5.10;99.90;;;;;;5041624;28;20033;-69
2024/03/08 02:14:46;;;;;;;32.03;16.30;;;5.50;99.90;;;;;;5041578;28;20067;-68
2024/03/08 02:17:12;;;;;;;31.90;16.60;;;5.00;99.90;;;;;;5041393;28;20316;-69
2024/03/08 02:19:38;;;;;;;32.78;17.70;;;5.10;99.90;;;;;;5041327;28;20108;-67
2024/03/08 02:22:05;;;;;;;32.13;17.02;;;5.00;99.90;;;;;;5041516;28;20045;-68
2024/03/08 02:24:32;;;;;;;33.10;16.20;;;4.80;99.90;;;;;;5041118;28;20085;-66
2024/03/08 02:26:57;;;;;;;34.97;19.45;;;5.00;99.90;;;;;;5041414;28;20183;-68
2024/03/08 02:29:24;;;;;;;34.58;17.50;;;5.10;99.90;;;;;;5041503;28;20313;-67
2024/03/08 02:31:51;;;;;;;27.85;15.98;;;5.10;99.90;;;;;;5027402;28;20356;-68
2024/03/08 02:34:17;;;;;;;34.55;18.38;;;5.00;99.90;;;;;;5021363;28;20029;-66
2024/03/08 02:36:43;;;;;;;34.55;18.17;;;5.00;99.90;;;;;;5019845;28;20077;-67
2024/03/08 02:39:10;;;;;;;34.60;16.98;;;5.00;99.90;;;;;;5021612;28;20029;-66
2024/03/08 02:41:37;;;;;;;36.63;18.13;;;5.00;99.90;;;;;;5040772;28;20037;-69
2024/03/08 02:44:03;;;;;;;33.20;17.02;;;5.00;99.90;;;;;;5041026;28;20163;-69
2024/03/08 02:46:30;;;;;;;37.20;17.45;;;4.90;99.90;;;;;;5040728;28;20082;-71
2024/03/08 02:48:56;;;;;;;32.75;17.63;;;;;;;;;;5040824;28;20172;-68
2024/03/08 02:51:21;;;;;;;32.63;17.23;;;4.80;99.90;;;;;;5040912;28;20219;-68
2024/03/08 02:53:48;;;;;;;33.63;18.23;;;;;;;;;;5041059;28;20164;-68
2024/03/08 02:56:16;;;;;;;33.33;18.73;;;5.00;99.90;;;;;;5040614;28;20029;-68
2024/03/08 02:58:42;;;;;;;37.40;16.98;;;5.20;99.90;;;;;;5040705;28;20035;-69
2024/03/08 03:01:10;;;;;;;50.47;22.00;;;5.10;99.90;;;;;;5040425;28;20215;-70
2024/03/08 03:03:35;;;;;;;34.22;19.00;;;5.00;99.90;;;;;;5040683;28;20033;-69
2024/03/08 03:06:01;;;;;;;42.75;20.75;;;;;;;;;;5040390;28;20045;-67
2024/03/08 03:08:28;;;;;;;43.90;21.10;;;5.00;99.90;;;;;;5040582;28;20432;-68
2024/03/08 03:10:56;;;;;;;40.58;20.20;;;4.90;99.90;;;;;;5040635;28;20140;-67
2024/03/08 03:13:23;;;;;;;40.73;19.63;;;;;;;;;;5040705;28;20025;-67
2024/03/08 03:15:48;;;;;;;36.67;18.77;;;5.10;99.90;;;;;;5039705;28;20033;-68
2024/03/08 03:18:15;;;;;;;40.47;19.05;;;5.10;99.90;;;;;;5040327;28;20096;-68
2024/03/08 03:20:42;;;;;;;40.42;19.33;;;5.20;99.90;;;;;;5040606;28;20044;-67
2024/03/08 03:23:08;;;;;;;35.25;19.58;;;5.10;99.90;;;;;;5040300;28;20030;-68
2024/03/08 03:25:35;;;;;;;41.85;20.83;;;5.10;99.90;;;;;;5040163;28;20041;-68
2024/03/08 03:28:04;;;;;;;49.05;22.52;;;5.30;99.90;;;;;;5040233;28;20029;-68
2024/03/08 03:30:33;;;;;;;47.58;21.67;;;5.10;99.90;;;;;;5039622;28;20372;-67
2024/03/08 03:33:01;;;;;;;42.15;21.30;;;5.50;99.90;;;;;;5040092;28;20065;-67
2024/03/08 03:35:29;;;;;;;40.38;20.38;;;5.10;99.90;;;;;;5040134;28;20025;-67
2024/03/08 03:38:06;;;;;;;49.50;22.58;;;5.30;99.90;;;;;;5039857;28;20049;-69
2024/03/08 03:40:36;;;;;;;44.90;22.70;;;5.10;99.90;;;;;;5040219;28;20021;-67
2024/03/08 03:43:03;;;;;;;50.03;23.75;;;5.10;99.90;;;;;;5039900;28;20021;-68
2024/03/08 03:45:29;;;;;;;47.47;24.70;;;5.10;99.90;;;;;;5040149;28;20048;-67
2024/03/08 03:47:55;;;;;;;49.55;21.77;;;5.10;99.90;;;;;;5039760;28;20356;-68
2024/03/08 03:50:21;;;;;;;47.13;23.05;;;5.20;99.90;;;;;;5039683;28;20029;-68
2024/03/08 03:52:47;;;;;;;51.10;22.85;;;5.10;99.90;;;;;;5039896;28;20035;-67
2024/03/08 03:55:14;;;;;;;56.22;24.02;;;5.10;99.90;;;;;;5039661;28;20053;-66
2024/03/08 03:57:40;;;;;;;44.58;21.98;;;5.10;99.90;;;;;;5039925;28;20119;-66
2024/03/08 04:00:10;;;;;;;48.63;22.77;;;5.00;99.90;;;;;;5039723;28;20088;-66
2024/03/08 04:02:38;;;;;;;50.38;23.15;;;5.10;99.90;;;;;;5046936;28;20044;-67
2024/03/08 04:05:08;;;;;;;47.25;24.52;;;5.10;99.90;;;;;;5051588;28;20053;-66
2024/03/08 04:07:34;;;;;;;49.70;24.05;;;5.50;99.90;;;;;;5039564;28;20033;-68
2024/03/08 04:10:01;;;;;;;50.58;23.05;;;5.20;99.90;;;;;;5039594;28;20376;-66
2024/03/08 04:12:28;;;;;;;45.35;22.95;;;5.20;99.90;;;;;;5038063;28;20026;-66
2024/03/08 04:14:58;;;;;;;47.42;21.70;;;5.20;99.90;;;;;;5039683;28;20033;-68
2024/03/08 04:17:26;;;;;;;49.13;24.15;;;5.20;99.90;;;;;;5039260;28;20238;-67
2024/03/08 04:19:52;;;;;;;49.70;23.97;;;5.10;99.90;;;;;;5039694;28;20109;-67
2024/03/08 04:22:19;;;;;;;44.63;23.67;;;5.10;99.90;;;;;;5037805;28;20259;-68
2024/03/08 04:24:45;;;;;;;48.53;22.50;;;4.90;99.90;;;;;;5039507;28;20213;-66
2024/03/08 04:27:11;;;;;;;50.85;24.20;;;5.10;99.90;;;;;;5039626;28;20054;-67
2024/03/08 04:29:37;;;;;;;54.00;24.88;;;5.10;99.90;;;;;;5039282;28;20028;-67
2024/03/08 04:32:09;;;;;;;54.05;25.52;;;5.10;99.90;;;;;;5023665;28;20217;-65
2024/03/08 04:34:35;;;;;;;51.85;23.23;;;5.10;99.90;;;;;;5019930;28;20026;-69
2024/03/08 04:37:02;;;;;;;50.13;24.17;;;5.20;99.90;;;;;;5019451;28;20076;-69
2024/03/08 04:39:31;;;;;;;49.63;24.27;;;5.10;99.90;;;;;;5030919;28;20059;-67
2024/03/08 04:41:58;;;;;;;50.53;25.15;;;;;;;;;;5038277;28;20056;-67
2024/03/08 04:44:24;;;;;;;54.00;25.73;;;5.10;99.90;;;;;;5039341;28;20036;-68
2024/03/08 04:46:50;;;;;;;49.35;24.23;;;;;;;;;;5039332;28;20341;-69
2024/03/08 04:49:16;;;;;;;52.97;24.17;;;;;;;;;;5039432;28;20063;-68
2024/03/08 04:51:42;;;;;;;55.65;25.02;;;7.10;99.90;;;;;;5039071;28;20719;-67
2024/03/08 04:54:08;;;;;;;56.65;25.15;;;4.90;99.90;;;;;;5039353;28;20033;-68
2024/03/08 04:56:36;;;;;;;56.25;27.50;;;5.20;99.90;;;;;;5038840;28;20029;-69
2024/03/08 04:59:01;;;;;;;56.88;24.70;;;5.30;99.90;;;;;;5037489;28;20041;-69
2024/03/08 05:01:27;;;;;;;54.30;25.23;;;5.10;99.90;;;;;;5038519;28;20025;-67
2024/03/08 05:03:55;;;;;;;50.47;24.70;;;5.20;99.90;;;;;;5038677;28;20053;-68
2024/03/08 05:06:20;;;;;;;58.92;25.13;;;5.20;99.90;;;;;;5038279;28;20033;-68
2024/03/08 05:08:46;;;;;;;56.83;24.55;;;5.40;99.90;;;;;;5037352;28;20033;-68
2024/03/08 05:11:14;;;;;;;56.50;25.27;;;5.10;99.90;;;;;;5039515;28;20092;-68
2024/03/08 05:13:41;;;;;;;58.03;27.23;;;5.30;99.90;;;;;;5038991;28;20344;-68
2024/03/08 05:16:07;;;;;;;55.40;26.73;;;5.10;99.90;;;;;;5039069;28;20037;-64
2024/03/08 05:18:34;;;;;;;59.80;26.48;;;5.00;99.90;;;;;;5039380;28;20040;-68
2024/03/08 05:20:59;;;;;;;57.60;27.52;;;5.00;99.90;;;;;;5039367;28;20030;-68
2024/03/08 05:23:25;;;;;;;59.15;27.15;;;5.10;99.90;;;;;;5039833;28;20017;-66
2024/03/08 05:25:51;;;;;;;55.65;26.67;;;5.20;99.90;;;;;;5039852;28;20070;-66
2024/03/08 05:28:17;;;;;;;57.75;26.70;;;5.10;99.90;;;;;;5039877;28;20037;-66
2024/03/08 05:30:42;;;;;;;66.80;27.73;;;5.10;99.90;;;;;;5036906;28;20030;-66
2024/03/08 05:33:14;;;;;;;60.33;24.67;;;;;;;;;;5022732;28;20025;-69
2024/03/08 05:35:40;;;;;;;50.75;25.10;;;5.10;99.90;;;;;;5022848;28;20038;-69
2024/03/08 05:38:06;;;;;;;58.67;26.80;;;5.00;99.90;;;;;;5022527;28;20401;-68
2024/03/08 05:40:32;;;;;;;59.40;27.50;;;5.00;99.90;;;;;;5026114;28;20042;-69
2024/03/08 05:43:01;;;;;;;61.72;27.98;;;5.10;99.90;;;;;;5027933;28;20348;-69
2024/03/08 05:45:27;;;;;;;64.55;27.08;;;5.10;99.90;;;;;;5027964;28;20091;-71
2024/03/08 05:47:53;;;;;;;62.83;28.38;;;5.20;99.90;;;;;;5042439;28;20036;-68
2024/03/08 05:50:20;;;;;;;58.63;27.70;;;5.10;99.90;;;;;;5046942;28;20029;-65
2024/03/08 05:52:47;;;;;;;59.50;25.60;;;5.20;99.90;;;;;;5046628;28;20017;-66
2024/03/08 05:55:14;;;;;;;58.22;27.50;;;5.10;99.90;;;;;;5044019;28;20175;-65
2024/03/08 05:57:43;;;;;;;60.03;27.58;;;5.10;99.90;;;;;;5042770;28;20029;-65
2024/03/08 06:00:15;;;;;;;58.17;27.20;;;5.00;99.90;;;;;;5042877;28;20120;-65
2024/03/08 06:02:41;;;;;;;59.08;27.40;;;5.20;99.90;;;;;;5042406;28;20313;-65
2024/03/08 06:05:15;;;;;;;58.10;28.23;;;5.10;99.90;;;;;;5042063;28;20026;-64
2024/03/08 06:07:41;;;;;;;67.47;27.58;;;5.20;99.90;;;;;;5042540;28;20024;-64
2024/03/08 06:10:10;;;;;;;69.20;30.27;;;5.20;99.90;;;;;;5041962;28;20032;-65
2024/03/08 06:12:40;;;;;;;72.22;28.63;;;5.40;99.90;;;;;;5041913;28;20040;-66
2024/03/08 06:15:06;;;;;;;64.20;28.90;;;5.40;99.90;;;;;;5041780;28;20032;-64
2024/03/08 06:17:32;;;;;;;63.63;27.33;;;5.30;99.90;;;;;;5041522;28;20351;-65
2024/03/08 06:19:58;;;;;;;74.78;32.10;;;;;;;;;;5042133;28;20120;-65
2024/03/08 06:22:24;;;;;;;64.15;27.05;;;5.50;99.90;;;;;;5041614;28;20025;-65
2024/03/08 06:24:51;;;;;;;72.20;30.70;;;5.50;99.90;;;;;;5041550;28;20030;-64
2024/03/08 06:27:17;;;;;;;66.80;27.88;;;5.40;99.90;;;;;;5041425;28;20340;-64
2024/03/08 06:29:43;;;;;;;65.68;29.90;;;5.50;99.90;;;;;;5041159;28;20057;-64
2024/03/08 06:32:09;;;;;;;62.92;26.30;;;;;;;;;;5024170;28;20033;-64
2024/03/08 06:34:34;;;;;;;68.93;29.38;;;5.50;99.90;;;;;;5021242;28;20028;-65
2024/03/08 06:37:01;;;;;;;64.90;28.67;;;5.50;99.90;;;;;;5020665;28;20054;-64
2024/03/08 06:39:30;;;;;;;60.28;27.80;;;5.40;99.90;;;;;;5040535;28;20048;-64
2024/03/08 06:41:55;;;;;;;67.05;29.35;;;5.50;99.90;;;;;;5040870;28;20214;-64
2024/03/08 06:44:21;;;;;;;69.30;29.92;;;5.40;99.90;;;;;;5041139;28;20033;-64
2024/03/08 06:46:48;;;;;;;75.63;28.45;;;5.70;99.90;;;;;;5040694;28;20352;-64
2024/03/08 06:49:15;;;;;;;72.53;27.92;;;5.50;99.90;;;;;;5040982;28;20067;-64
2024/03/08 06:51:41;;;;;;;69.00;30.75;;;5.60;99.90;;;;;;5039667;28;20033;-64
2024/03/08 06:54:08;;;;;;;68.60;29.92;;;;;;;;;;5040685;28;20025;-66
2024/03/08 06:56:37;;;;;;;73.70;30.55;;;5.60;99.90;;;;;;5039422;28;20029;-66
2024/03/08 06:59:03;;;;;;;60.42;28.33;;;5.50;99.90;;;;;;5040754;28;20029;-64
2024/03/08 07:01:36;;;;;;;73.32;32.17;;;5.70;99.90;;;;;;5043009;28;20044;-67
2024/03/08 07:04:05;;;;;;;76.10;30.60;;;5.60;99.90;;;;;;5047596;28;20035;-64
2024/03/08 07:06:33;;;;;;;63.85;28.85;;;5.90;99.90;;;;;;5040330;28;20021;-67
2024/03/08 07:09:01;;;;;;;77.05;30.15;;;5.50;99.90;;;;;;5040464;28;20033;-67
2024/03/08 07:11:26;;;;;;;69.20;31.70;;;5.70;99.90;;;;;;5040205;28;20033;-64
2024/03/08 07:13:52;;;;;;;70.25;28.75;;;5.90;99.90;;;;;;5040551;28;20106;-63
2024/03/08 07:16:18;;;;;;;66.00;29.98;;;5.80;99.90;;;;;;5040213;28;20021;-64
2024/03/08 07:18:43;;;;;;;70.28;27.35;;;5.80;99.90;;;;;;5040498;28;20108;-64
2024/03/08 07:21:16;;;;;;;74.97;31.58;;;5.80;99.90;;;;;;5040562;28;20106;-64
2024/03/08 07:26:40;;;;;;;71.90;31.47;;;5.80;99.90;;;;;;5017398;28;20060;-66
2024/03/08 07:29:05;;;;;;;74.45;32.65;;;6.00;99.90;;;;;;5040234;28;20217;-66
2024/03/08 07:31:44;;;;;;;77.10;30.50;;;6.00;99.90;;;;;;5028693;28;20025;-67
2024/03/08 07:34:10;;;;;;;68.15;29.40;;;6.00;99.90;;;;;;5020684;28;20232;-64
2024/03/08 07:36:35;;;;;;;65.45;29.73;;;6.10;99.90;;;;;;5024043;28;20408;-66
2024/03/08 07:39:01;;;;;;;60.22;27.83;;;6.40;99.90;;;;;;5035639;28;20013;-66
2024/03/08 07:41:29;;;;;;;64.63;29.73;;;6.20;99.90;;;;;;5040119;28;20064;-66
2024/03/08 07:43:55;;;;;;;66.50;28.67;;;6.40;99.90;;;;;;5039923;28;20325;-65
2024/03/08 07:46:21;;;;;;;65.45;30.35;;;6.30;99.90;;;;;;5039699;28;20052;-65
2024/03/08 07:48:48;;;;;;;66.55;28.92;;;6.40;99.90;;;;;;5039943;28;20044;-66
2024/03/08 07:51:17;;;;;;;68.78;28.92;;;6.40;99.90;;;;;;5039979;28;20033;-65
2024/03/08 07:53:43;;;;;;;67.53;29.08;;;6.30;99.90;;;;;;5039777;28;20036;-65
2024/03/08 07:56:12;;;;;;;69.60;31.02;;;6.40;99.90;;;;;;5039448;28;20033;-65
2024/03/08 07:58:40;;;;;;;64.43;29.75;;;;;;;;;;5039807;28;20099;-66
2024/03/08 08:01:06;;;;;;;64.20;29.38;;;6.50;99.90;;;;;;5033352;28;20033;-67
2024/03/08 08:03:32;;;;;;;69.60;28.67;;;6.60;99.90;;;;;;5033317;28;20032;-67
2024/03/08 08:05:58;;;;;;;66.82;29.65;;;;;;;;;;5039390;28;20349;-65
2024/03/08 08:08:26;;;;;;;65.38;29.92;;;6.60;99.90;;;;;;5038263;28;20051;-66
2024/03/08 08:10:52;;;;;;;66.10;28.45;;;;;;;;;;5039646;28;20229;-66
2024/03/08 08:13:17;;;;;;;63.00;27.52;;;6.60;99.90;;;;;;5039408;28;20325;-65
2024/03/08 08:15:44;;;;;;;67.93;29.83;;;6.60;99.90;;;;;;5039590;28;20043;-66
2024/03/08 08:18:09;;;;;;;67.25;29.80;;;6.70;99.90;;;;;;5039219;28;20028;-66
2024/03/08 08:20:35;;;;;;;72.55;30.23;;;6.60;99.90;;;;;;5039484;28;20033;-66
2024/03/08 08:23:01;;;;;;;75.32;31.42;;;6.70;99.90;;;;;;5039416;28;20140;-67
2024/03/08 08:25:27;;;;;;;73.22;31.30;;;;;;;;;;5039062;28;20043;-66
2024/03/08 08:27:53;;;;;;;72.13;31.58;;;6.40;99.90;;;;;;5039176;28;20014;-66
2024/03/08 08:30:20;;;;;;;66.90;29.77;;;6.80;99.90;;;;;;5037314;28;20044;-65
2024/03/08 08:32:48;;;;;;;67.78;31.25;;;6.90;99.90;;;;;;5019649;28;20057;-65
2024/03/08 08:35:14;;;;;;;70.30;30.90;;;6.70;99.90;;;;;;5032616;28;20048;-65
2024/03/08 08:37:40;;;;;;;71.00;30.65;;;6.90;99.90;;;;;;5043709;28;20061;-65
2024/03/08 08:40:09;;;;;;;64.72;29.23;;;7.50;99.90;;;;;;5038887;28;20029;-67
2024/03/08 08:42:38;;;;;;;63.53;30.67;;;6.90;99.90;;;;;;5038884;28;20014;-65
2024/03/08 08:45:09;;;;;;;76.07;32.90;;;7.00;99.90;;;;;;5039370;28;20044;-65
2024/03/08 08:47:38;;;;;;;67.75;32.33;;;7.30;99.90;;;;;;5039237;28;20076;-65
2024/03/08 08:50:11;;;;;;;77.32;34.13;;;7.40;99.90;;;;;;5038388;28;20017;-65
2024/03/08 08:52:38;;;;;;;65.50;32.17;;;7.60;99.90;;;;;;5039265;28;20033;-65
2024/03/08 08:55:04;;;;;;;72.47;31.98;;;7.90;99.90;;;;;;5039091;28;20017;-65
2024/03/08 08:57:32;;;;;;;69.50;30.88;;;;;;;;;;5039205;28;20065;-65
2024/03/08 09:00:00;;;;;;;64.85;29.52;;;8.00;99.90;;;;;;5039198;28;20030;-65
2024/03/08 09:02:26;;;;;;;64.72;29.88;;;7.90;99.90;;;;;;5038890;28;20018;-64
2024/03/08 09:04:52;;;;;;;69.15;30.52;;;;;;;;;;5038818;28;20040;-65
2024/03/08 09:07:18;;;;;;;64.35;30.13;;;;;;;;;;5038906;28;20060;-65
2024/03/08 09:09:45;;;;;;;66.15;30.92;;;7.90;99.90;;;;;;5039030;28;20085;-65
2024/03/08 09:12:13;;;;;;;71.45;32.22;;;7.90;99.90;;;;;;5037476;28;20029;-65
2024/03/08 09:14:41;;;;;;;66.85;30.58;;;7.70;99.90;;;;;;5040998;28;20013;-65
2024/03/08 09:17:08;;;;;;;63.38;30.13;;;7.90;99.90;;;;;;5042848;28;20040;-65
2024/03/08 09:19:34;;;;;;;65.30;31.92;;;7.60;99.90;;;;;;5042764;28;20022;-65
2024/03/08 09:22:00;;;;;;;68.88;31.67;;;7.90;99.90;;;;;;5042833;28;20033;-67
2024/03/08 09:24:25;;;;;;;66.63;30.73;;;7.80;99.90;;;;;;5042413;28;20336;-65
2024/03/08 09:26:52;;;;;;;66.72;32.17;;;7.70;99.90;;;;;;5042377;28;20482;-65
2024/03/08 09:29:17;;;;;;;62.95;28.92;;;7.70;99.90;;;;;;5042146;28;20264;-65
2024/03/08 09:31:46;;;;;;;65.30;30.70;;;8.00;99.90;;;;;;5027409;28;20037;-65
2024/03/08 09:34:11;;;;;;;69.05;31.92;;;8.00;99.90;;;;;;5022480;28;20303;-65
2024/03/08 09:36:37;;;;;;;67.75;31.63;;;8.00;99.90;;;;;;5021000;28;20108;-65
2024/03/08 09:39:07;;;;;;;71.30;31.50;;;8.20;99.90;;;;;;5022552;28;20049;-67
2024/03/08 09:41:34;;;;;;;67.10;30.92;;;;;;;;;;5022471;28;20084;-66
2024/03/08 09:44:01;;;;;;;64.80;31.13;;;8.30;99.90;;;;;;5022606;28;20036;-66
2024/03/08 09:46:27;;;;;;;64.32;31.15;;;8.40;99.90;;;;;;5042070;28;20345;-65
2024/03/08 09:48:54;;;;;;;60.13;29.65;;;8.70;99.90;;;;;;5041832;28;20093;-65
2024/03/08 09:51:27;;;;;;;64.55;30.23;;;8.50;99.90;;;;;;5041843;28;20305;-65
2024/03/08 09:53:53;;;;;;;64.13;31.20;;;8.50;99.90;;;;;;5041857;28;20071;-65
2024/03/08 09:56:19;;;;;;;62.05;30.67;;;8.70;99.90;;;;;;5041841;28;20036;-65
2024/03/08 09:59:20;;;;;;;66.13;32.47;;;;;;;;;;5041582;28;20021;-65
2024/03/08 10:01:41;;;;;;;62.75;32.25;;;8.50;99.90;;;;;;5041561;28;20033;-65
2024/03/08 10:04:10;;;;;;;62.60;30.52;;;8.80;99.90;;;;;;5050095;28;20024;-65
2024/03/08 10:06:36;;;;;;;63.30;30.25;;;8.50;99.90;;;;;;5044065;28;20037;-65
2024/03/08 10:09:02;;;;;;;57.05;28.13;;;8.60;99.90;;;;;;5041969;28;20033;-66
2024/03/08 10:11:28;;;;;;;66.97;30.67;;;8.90;99.90;;;;;;5042047;28;20032;-66
2024/03/08 10:13:54;;;;;;;66.50;30.67;;;8.60;99.90;;;;;;5041796;28;20092;-66
2024/03/08 10:16:24;;;;;;;57.08;29.50;;;;;;;;;;5041179;28;20029;-66
2024/03/08 10:18:49;;;;;;;71.97;30.88;;;8.80;99.90;;;;;;5041925;28;20040;-66
2024/03/08 10:21:17;;;;;;;64.63;31.70;;;;;;;;;;5041511;28;20029;-67
2024/03/08 10:23:43;;;;;;;67.20;31.02;;;9.20;99.90;;;;;;5041497;28;20021;-66
2024/03/08 10:26:15;;;;;;;59.35;29.40;;;8.90;99.90;;;;;;5041015;28;20037;-65
2024/03/08 10:28:44;;;;;;;67.88;29.63;;;9.10;99.30;;;;;;5041446;28;20025;-65
2024/03/08 10:31:10;;;;;;;64.90;30.92;;;9.30;99.90;;;;;;5032302;28;20072;-65
2024/03/08 10:33:39;;;;;;;61.10;28.27;;;9.20;99.90;;;;;;5021707;28;20214;-65
2024/03/08 10:36:09;;;;;;;70.63;31.65;;;8.80;99.90;;;;;;5029645;28;20056;-65
2024/03/08 10:38:39;;;;;;;67.13;29.63;;;8.90;99.30;;;;;;5041452;28;20057;-65
2024/03/08 10:41:07;;;;;;;63.88;29.77;;;8.60;99.90;;;;;;5041082;28;20334;-65
2024/03/08 10:43:44;;;;;;;61.38;28.05;;;9.20;99.90;;;;;;5040917;28;20029;-64
2024/03/08 10:46:10;;;;;;;55.55;26.20;;;;;;;;;;5041090;28;20328;-64
2024/03/08 10:48:44;;;;;;;51.30;24.63;;;8.70;99.20;;;;;;5041074;28;20017;-64
2024/03/08 10:51:11;;;;;;;53.47;26.35;;;8.90;99.90;;;;;;5041286;28;20040;-64
2024/03/08 10:53:41;;;;;;;54.40;25.83;;;8.90;99.90;;;;;;5041102;28;20048;-64
2024/03/08 10:56:09;;;;;;;55.78;26.63;;;9.10;99.10;;;;;;5041243;28;20029;-64
2024/03/08 10:58:36;;;;;;;49.95;24.38;;;9.30;99.90;;;;;;5040998;28;20029;-65
2024/03/08 11:01:02;;;;;;;47.53;24.83;;;9.30;99.90;;;;;;5040862;28;20090;-64
2024/03/08 11:03:40;;;;;;;45.35;23.80;;;9.50;99.90;;;;;;5040446;28;20026;-64
2024/03/08 11:06:14;;;;;;;44.50;25.08;;;9.50;99.90;;;;;;5040814;28;20063;-65
2024/03/08 11:08:40;;;;;;;50.33;23.55;;;9.60;99.90;;;;;;5040821;28;20054;-65
2024/03/08 11:11:30;;;;;;;39.80;21.15;;;9.60;96.70;;;;;;5040250;28;20354;-65
2024/03/08 11:13:57;;;;;;;40.13;21.17;;;;;;;;;;5039954;28;20201;-64
2024/03/08 11:16:26;;;;;;;41.90;23.05;;;10.30;94.70;;;;;;5040438;28;20044;-64
2024/03/08 11:19:10;;;;;;;44.22;22.77;;;10.30;94.10;;;;;;5039528;28;20018;-65
2024/03/08 11:21:39;;;;;;;40.78;21.85;;;10.60;92.80;;;;;;5039444;28;20025;-64
2024/03/08 11:24:13;;;;;;;;;;;10.60;93.00;;;;;;5040962;28;20091;-65
2024/03/08 11:26:40;;;;;;;39.65;20.15;;;10.50;92.80;;;;;;5038725;28;20221;-64
2024/03/08 11:29:28;;;;;;;43.20;21.15;;;10.40;91.70;;;;;;5039255;28;20113;-65
2024/03/08 11:32:18;;;;;;;43.08;23.55;;;10.30;92.10;;;;;;5025410;28;20029;-64
2024/03/08 11:34:49;;;;;;;45.72;24.75;;;10.30;92.90;;;;;;5020662;28;20097;-65
2024/03/08 11:37:17;;;;;;;39.65;22.60;;;10.30;93.10;;;;;;5020130;28;20062;-65
2024/03/08 11:40:02;;;;;;;40.95;21.98;;;10.30;92.70;;;;;;5022637;28;20033;-65
2024/03/08 11:42:28;;;;;;;39.63;21.35;;;;;;;;;;5022586;28;20032;-67
2024/03/08 11:44:54;;;;;;;37.17;20.27;;;10.10;99.30;;;;;;5037192;28;20021;-70
2024/03/08 11:47:20;;;;;;;39.00;21.52;;;;;;;;;;5042212;28;20388;-65
2024/03/08 11:49:48;;;;;;;37.17;21.15;;;;;;;;;;5042294;28;20030;-65
2024/03/08 11:52:15;;;;;;;38.17;19.77;;;10.50;98.70;;;;;;5042242;28;20041;-66
2024/03/08 11:54:43;;;;;;;34.88;20.27;;;10.50;90.90;;;;;;5042072;28;20029;-65
2024/03/08 11:57:10;;;;;;;30.35;17.35;;;10.60;93.40;;;;;;5042046;28;20089;-65
2024/03/08 11:59:36;;;;;;;34.10;19.58;;;10.20;97.20;;;;;;5042267;28;20021;-66
2024/03/08 12:02:04;;;;;;;32.97;18.65;;;10.50;90.60;;;;;;5042132;28;20031;-65
2024/03/08 12:04:30;;;;;;;37.40;18.73;;;10.50;90.40;;;;;;5040195;28;20025;-67
2024/03/08 12:07:08;;;;;;;34.17;19.08;;;10.30;92.20;;;;;;5022048;28;20065;-64
2024/03/08 12:09:36;;;;;;;36.53;20.95;;;;;;;;;;5039895;28;20064;-64
2024/03/08 12:12:03;;;;;;;40.67;21.55;;;10.60;90.10;;;;;;5039587;28;20330;-70
2024/03/08 12:14:29;;;;;;;39.80;21.50;;;;;;;;;;5039964;28;20030;-65
2024/03/08 12:16:55;;;;;;;48.90;24.33;;;10.10;93.30;;;;;;5040081;28;20029;-65
2024/03/08 12:19:21;;;;;;;36.85;21.10;;;;;;;;;;5039600;28;20034;-65
2024/03/08 12:21:50;;;;;;;34.95;19.67;;;;;;;;;;5039471;28;20056;-68
2024/03/08 12:24:19;;;;;;;34.03;18.95;;;9.70;98.20;;;;;;5039480;28;20033;-65
2024/03/08 12:26:48;;;;;;;;;;;9.70;91.60;;;;;;5039788;28;20037;-64
2024/03/08 12:29:25;;;;;;;39.25;21.10;;;9.50;91.80;;;;;;5039328;28;19908;-67
2024/03/08 12:31:58;;;;;;;35.70;19.58;;;9.70;93.40;;;;;;5039400;28;20040;-64
2024/03/08 12:34:23;;;;;;;44.67;22.23;;;9.40;95.40;;;;;;5039367;28;20029;-64
2024/03/08 12:36:54;;;;;;;40.17;21.00;;;9.30;99.00;;;;;;5039230;28;20057;-64
2024/03/08 12:39:27;;;;;;;48.80;22.15;;;9.20;99.60;;;;;;5040052;28;20021;-65
2024/03/08 12:41:56;;;;;;;41.40;22.58;;;9.00;92.40;;;;;;5040820;28;20028;-69
2024/03/08 12:44:22;;;;;;;42.50;21.33;;;;;;;;;;5040318;28;20042;-69
2024/03/08 12:46:49;;;;;;;45.47;21.67;;;;;;;;;;5039845;28;20033;-66
2024/03/08 12:49:18;;;;;;;46.28;21.77;;;8.90;94.30;;;;;;5043138;28;20045;-65
2024/03/08 12:51:45;;;;;;;43.50;22.63;;;8.90;95.10;;;;;;5043701;28;20032;-65